createdAt,value
2023-03-30T00:00:50.356Z,25.29
2023-03-30T00:04:50.506Z,25.29
2023-03-30T00:08:50.485Z,25.27
2023-03-30T00:12:50.614Z,25.27
2023-03-30T00:16:50.742Z,25.26
2023-03-30T00:20:50.901Z,25.27
2023-03-30T00:24:50.999Z,25.26
2023-03-30T00:28:51.241Z,25.27
2023-03-30T00:32:51.396Z,25.26
2023-03-30T00:36:51.519Z,25.23
2023-03-30T00:40:51.671Z,25.23
2023-03-30T00:44:51.882Z,25.24
2023-03-30T00:48:52.035Z,25.24
2023-03-30T00:52:52.210Z,25.23
2023-03-30T00:56:52.419Z,25.23
2023-03-30T01:00:52.567Z,25.21
2023-03-30T01:04:52.726Z,25.21
2023-03-30T01:08:52.936Z,25.21
2023-03-30T01:12:53.100Z,25.20
2023-03-30T01:16:53.313Z,25.21
2023-03-30T01:20:53.458Z,25.21
2023-03-30T01:24:53.755Z,25.21
2023-03-30T01:28:53.857Z,25.21
2023-03-30T01:32:54.122Z,25.20
2023-03-30T01:36:54.227Z,25.21
2023-03-30T01:40:54.431Z,25.21
2023-03-30T01:44:54.633Z,25.17
2023-03-30T01:48:54.868Z,25.20
2023-03-30T01:52:55.024Z,25.23
2023-03-30T01:56:55.243Z,25.23
2023-03-30T02:00:55.411Z,25.20
2023-03-30T02:04:55.632Z,25.23
2023-03-30T02:08:55.793Z,25.23
2023-03-30T02:12:55.971Z,25.23
2023-03-30T02:16:56.144Z,25.24
2023-03-30T02:20:56.351Z,25.24
2023-03-30T02:24:56.526Z,25.23
2023-03-30T02:28:56.702Z,25.24
2023-03-30T02:36:56.101Z,25.24
2023-03-30T02:44:56.442Z,25.26
2023-03-30T02:52:56.828Z,25.27
2023-03-30T03:00:59.245Z,25.26
2023-03-30T03:08:57.606Z,25.23
2023-03-30T03:16:57.741Z,25.23
2023-03-30T03:24:57.650Z,25.20
2023-03-30T03:32:57.575Z,25.23
2023-03-30T03:40:57.494Z,25.20
2023-03-30T03:48:57.539Z,25.23
2023-03-30T03:52:58.723Z,25.20
2023-03-30T04:00:58.195Z,25.21
2023-03-30T04:08:58.532Z,25.20
2023-03-30T04:16:58.892Z,25.21
2023-03-30T04:24:59.238Z,25.24
2023-03-30T04:32:59.648Z,25.23
2023-03-30T07:49:03.785Z,25.76
2023-03-30T07:57:03.812Z,25.90
2023-03-30T08:05:04.165Z,26.08
2023-03-30T08:13:04.061Z,26.24
2023-03-30T08:21:04.289Z,26.41
2023-03-30T08:29:03.556Z,26.52
2023-03-30T08:37:03.532Z,26.52
2023-03-30T08:45:03.588Z,26.51
2023-03-30T08:53:03.558Z,26.51
2023-03-30T09:01:04.004Z,26.35
2023-03-30T09:09:04.053Z,25.76
2023-03-30T09:17:04.160Z,25.44
2023-03-30T09:25:03.566Z,25.36
2023-03-30T09:33:04.137Z,25.69
2023-03-30T09:41:04.271Z,26.00
2023-03-30T09:49:04.091Z,26.21
2023-03-30T09:57:04.371Z,26.37
2023-03-30T10:05:04.564Z,26.49
2023-03-30T10:25:05.069Z,26.62
2023-03-30T10:49:05.076Z,26.78
2023-03-30T12:01:06.484Z,23.06
2023-03-30T12:05:07.418Z,23.33
2023-03-30T12:09:07.610Z,23.49
2023-03-30T12:13:07.638Z,23.58
2023-03-30T12:17:08.115Z,23.56
2023-03-30T12:21:08.616Z,23.52
2023-03-30T12:25:08.644Z,23.52
2023-03-30T12:33:08.161Z,23.42
2023-03-30T12:39:03.472Z,23.01
2023-03-30T12:40:04.440Z,23.22
2023-03-30T12:41:04.413Z,23.42
2023-03-30T12:42:04.363Z,23.52
2023-03-30T12:43:04.320Z,23.65
2023-03-30T12:44:04.254Z,23.75
2023-03-30T12:45:04.256Z,23.88
2023-03-30T12:46:04.404Z,23.94
2023-03-30T12:47:06.768Z,24.05
2023-03-30T12:48:04.083Z,24.12
2023-03-30T12:49:05.804Z,24.20
2023-03-30T12:50:03.902Z,24.26
2023-03-30T12:51:04.021Z,24.31
2023-03-30T12:52:03.788Z,24.37
2023-03-30T12:53:04.350Z,24.44
2023-03-30T12:54:03.667Z,24.51
2023-03-30T12:55:03.620Z,24.55
2023-03-30T12:56:03.678Z,24.57
2023-03-30T12:57:03.534Z,24.64
2023-03-30T12:58:03.672Z,24.65
2023-03-30T12:59:03.342Z,24.71
2023-03-30T13:00:03.284Z,24.72
2023-03-30T13:01:03.306Z,24.78
2023-03-30T13:02:03.167Z,24.79
2023-03-30T13:03:03.203Z,24.81
2023-03-30T13:04:02.996Z,24.83
2023-03-30T13:05:02.933Z,24.86
2023-03-30T13:06:02.939Z,24.89
2023-03-30T13:07:03.169Z,24.92
2023-03-30T13:08:03.175Z,24.92
2023-03-30T13:09:02.655Z,24.93
2023-03-30T13:10:05.602Z,24.96
2023-03-30T13:11:02.488Z,24.95
2023-03-30T13:12:02.666Z,24.99
2023-03-30T13:13:02.684Z,24.99
2023-03-30T13:14:02.287Z,24.99
2023-03-30T13:15:02.215Z,25.02
2023-03-30T13:16:02.375Z,25.00
2023-03-30T13:17:02.257Z,25.02
2023-03-30T13:18:02.155Z,25.02
2023-03-30T13:19:01.929Z,25.00
2023-03-30T13:20:01.870Z,25.00
2023-03-30T13:21:01.803Z,25.03
2023-03-30T13:22:01.721Z,25.02
2023-03-30T13:23:01.653Z,25.02
2023-03-30T13:24:01.674Z,25.05
2023-03-30T13:25:01.503Z,25.03
2023-03-30T13:26:01.450Z,25.06
2023-03-30T13:27:01.675Z,25.05
2023-03-30T13:28:01.320Z,25.05
2023-03-30T13:29:01.713Z,25.06
2023-03-30T13:30:01.171Z,25.06
2023-03-30T13:31:01.114Z,25.09
2023-03-30T13:32:01.020Z,25.10
2023-03-30T13:33:01.058Z,25.09
2023-03-30T13:34:00.873Z,25.09
2023-03-30T13:35:06.671Z,25.12
2023-03-30T13:36:00.805Z,25.10
2023-03-30T13:37:00.670Z,25.12
2023-03-30T13:38:00.583Z,25.10
2023-03-30T13:39:00.505Z,25.12
2023-03-30T13:40:00.437Z,25.12
2023-03-30T13:41:05.179Z,25.12
2023-03-30T13:42:00.308Z,25.10
2023-03-30T13:43:00.222Z,25.10
2023-03-30T13:44:00.178Z,25.13
2023-03-30T13:45:00.162Z,25.13
2023-03-30T13:46:13.250Z,25.12
2023-03-30T13:47:00.006Z,25.10
2023-03-30T13:47:59.925Z,25.12
2023-03-30T13:48:59.875Z,25.12
2023-03-30T13:49:59.786Z,25.14
2023-03-30T13:50:59.719Z,25.10
2023-03-30T13:51:59.660Z,25.12
2023-03-30T13:52:59.589Z,25.12
2023-03-30T13:53:59.681Z,25.13
2023-03-30T13:54:59.514Z,25.14
2023-03-30T13:55:59.383Z,25.13
2023-03-30T13:56:59.400Z,25.14
2023-03-30T13:57:59.331Z,25.13
2023-03-30T13:58:59.698Z,25.13
2023-03-30T13:59:59.118Z,25.10
2023-03-30T14:00:59.049Z,25.13
2023-03-30T14:01:59.993Z,25.13
2023-03-30T14:02:58.952Z,25.14
2023-03-30T14:03:58.905Z,25.13
2023-03-30T14:04:58.800Z,25.13
2023-03-30T14:05:58.706Z,25.16
2023-03-30T14:06:58.670Z,25.16
2023-03-30T14:07:58.570Z,25.14
2023-03-30T14:08:58.684Z,25.17
2023-03-30T14:09:58.465Z,25.19
2023-03-30T14:10:58.457Z,25.17
2023-03-30T14:11:58.456Z,25.17
2023-03-30T14:12:58.448Z,25.16
2023-03-30T14:13:58.424Z,25.17
2023-03-30T14:14:58.423Z,25.17
2023-03-30T14:15:58.440Z,25.20
2023-03-30T14:16:58.409Z,25.20
2023-03-30T14:17:58.450Z,25.20
2023-03-30T14:18:58.351Z,25.20
2023-03-30T14:19:58.334Z,25.20
2023-03-30T14:20:58.352Z,25.20
2023-03-30T14:21:58.319Z,25.20
2023-03-30T14:22:58.294Z,25.20
2023-03-30T14:23:58.279Z,25.21
2023-03-30T14:24:58.263Z,25.21
2023-03-30T14:25:58.700Z,25.21
2023-03-30T14:26:58.278Z,25.21
2023-03-30T14:27:58.266Z,25.21
2023-03-30T14:28:58.255Z,25.23
2023-03-30T14:29:58.248Z,25.23
2023-03-30T14:30:58.224Z,25.21
2023-03-30T14:32:08.011Z,25.21
2023-03-30T14:32:58.136Z,25.21
2023-03-30T14:33:58.066Z,25.23
2023-03-30T14:34:57.990Z,25.23
2023-03-30T14:35:57.969Z,25.23
2023-03-30T14:36:57.867Z,25.21
2023-03-30T14:38:56.717Z,25.23
2023-03-30T14:39:57.644Z,25.23
2023-03-30T14:40:57.703Z,25.23
2023-03-30T14:41:57.464Z,25.24
2023-03-30T14:42:57.401Z,25.26
2023-03-30T14:43:57.706Z,25.27
2023-03-30T14:44:57.336Z,25.26
2023-03-30T14:45:57.377Z,25.23
2023-03-30T14:46:57.322Z,25.26
2023-03-30T14:47:57.286Z,25.27
2023-03-30T14:48:57.267Z,25.26
2023-03-30T14:49:57.226Z,25.26
2023-03-30T14:50:57.189Z,25.26
2023-03-30T14:51:57.171Z,25.27
2023-03-30T14:52:57.233Z,25.29
2023-03-30T14:53:57.162Z,25.26
2023-03-30T14:55:05.256Z,25.26
2023-03-30T14:55:57.060Z,25.26
2023-03-30T14:56:57.015Z,25.26
2023-03-30T14:57:56.922Z,25.26
2023-03-30T14:58:56.846Z,25.26
2023-03-30T14:59:56.768Z,25.27
2023-03-30T15:00:56.765Z,25.27
2023-03-30T15:01:56.654Z,25.27
2023-03-30T15:02:56.575Z,25.27
2023-03-30T15:03:56.496Z,25.26
2023-03-30T15:04:56.391Z,25.29
2023-03-30T15:05:56.319Z,25.30
2023-03-30T15:06:56.254Z,25.30
2023-03-30T15:07:56.197Z,25.29
2023-03-30T15:08:56.140Z,25.29
2023-03-30T15:09:56.049Z,25.29
2023-03-30T15:10:55.974Z,25.30
2023-03-30T15:11:55.905Z,25.27
2023-03-30T15:12:56.215Z,25.29
2023-03-30T15:13:55.778Z,25.30
2023-03-30T15:14:55.706Z,25.30
2023-03-30T15:15:55.642Z,25.31
2023-03-30T15:16:55.609Z,25.29
2023-03-30T15:17:55.546Z,25.29
2023-03-30T15:18:55.420Z,25.31
2023-03-30T15:19:55.337Z,25.33
2023-03-30T15:20:55.266Z,25.31
2023-03-30T15:21:55.737Z,25.31
2023-03-30T15:22:55.202Z,25.31
2023-03-30T15:23:55.208Z,25.31
2023-03-30T15:24:55.224Z,25.33
2023-03-30T15:25:55.183Z,25.33
2023-03-30T15:26:55.166Z,25.31
2023-03-30T15:27:55.146Z,25.31
2023-03-30T15:28:55.126Z,25.34
2023-03-30T15:29:55.127Z,25.33
2023-03-30T15:30:55.147Z,25.36
2023-03-30T15:31:55.108Z,25.36
2023-03-30T15:32:55.143Z,25.36
2023-03-30T15:33:55.078Z,25.36
2023-03-30T15:34:55.070Z,25.36
2023-03-30T15:35:55.132Z,25.36
2023-03-30T15:36:55.069Z,25.37
2023-03-30T15:37:55.024Z,25.36
2023-03-30T15:38:55.012Z,25.37
2023-03-30T15:39:55.021Z,25.37
2023-03-30T15:40:55.038Z,25.38
2023-03-30T15:41:55.011Z,25.37
2023-03-30T15:42:54.990Z,25.37
2023-03-30T15:43:54.994Z,25.37
2023-03-30T15:44:54.985Z,25.38
2023-03-30T15:45:55.021Z,25.40
2023-03-30T15:46:54.967Z,25.37
2023-03-30T15:47:55.047Z,25.38
2023-03-30T15:48:54.911Z,25.38
2023-03-30T15:49:54.896Z,25.37
2023-03-30T15:50:54.855Z,25.37
2023-03-30T15:51:54.839Z,25.34
2023-03-30T15:52:54.811Z,25.37
2023-03-30T15:53:55.906Z,25.37
2023-03-30T15:54:54.786Z,25.33
2023-03-30T15:55:54.754Z,25.36
2023-03-30T15:56:54.829Z,25.37
2023-03-30T15:57:54.714Z,25.36
2023-03-30T15:58:54.704Z,25.38
2023-03-30T15:59:54.671Z,25.37
2023-03-30T16:00:54.662Z,25.34
2023-03-30T16:01:54.773Z,25.34
2023-03-30T16:02:54.669Z,25.36
2023-03-30T16:03:54.588Z,25.37
2023-03-30T16:04:54.789Z,25.36
2023-03-30T16:05:54.545Z,25.33
2023-03-30T16:06:54.526Z,25.34
2023-03-30T16:07:54.495Z,25.36
2023-03-30T16:08:54.451Z,25.37
2023-03-30T16:09:54.422Z,25.36
2023-03-30T16:10:54.390Z,25.36
2023-03-30T16:11:54.367Z,25.36
2023-03-30T16:12:54.450Z,25.34
2023-03-30T16:13:54.326Z,25.36
2023-03-30T16:14:54.290Z,25.36
2023-03-30T16:15:54.301Z,25.33
2023-03-30T16:16:54.279Z,25.36
2023-03-30T16:17:54.335Z,25.37
2023-03-30T16:18:54.250Z,25.36
2023-03-30T16:19:54.266Z,25.36
2023-03-30T16:20:54.228Z,25.36
2023-03-30T16:21:54.220Z,25.36
2023-03-30T16:22:54.188Z,25.33
2023-03-30T16:23:54.164Z,25.37
2023-03-30T16:24:54.144Z,25.37
2023-03-30T16:25:54.109Z,25.37
2023-03-30T16:26:54.082Z,25.36
2023-03-30T16:27:54.047Z,25.36
2023-03-30T16:28:54.060Z,25.36
2023-03-30T16:29:54.024Z,25.34
2023-03-30T16:30:54.012Z,25.38
2023-03-30T16:31:54.096Z,25.34
2023-03-30T16:32:54.048Z,25.36
2023-03-30T16:33:54.240Z,25.33
2023-03-30T16:34:53.926Z,25.37
2023-03-30T16:35:53.967Z,25.33
2023-03-30T16:36:53.875Z,25.33
2023-03-30T16:37:53.836Z,25.36
2023-03-30T16:38:53.813Z,25.34
2023-03-30T16:39:53.801Z,25.34
2023-03-30T16:40:53.804Z,25.33
2023-03-30T16:41:53.751Z,25.34
2023-03-30T16:42:53.747Z,25.33
2023-03-30T16:43:53.716Z,25.34
2023-03-30T16:44:53.711Z,25.34
2023-03-30T16:45:53.692Z,25.34
2023-03-30T16:46:53.685Z,25.34
2023-03-30T16:47:53.699Z,25.33
2023-03-30T16:48:53.653Z,25.33
2023-03-30T16:49:53.603Z,25.31
2023-03-30T16:50:53.567Z,25.34
2023-03-30T16:51:56.932Z,25.33
2023-03-30T16:52:53.477Z,25.33
2023-03-30T16:53:53.407Z,25.31
2023-03-30T16:54:53.336Z,25.34
2023-03-30T16:55:53.257Z,25.34
2023-03-30T16:56:53.206Z,25.34
2023-03-30T16:57:53.121Z,25.34
2023-03-30T16:58:53.044Z,25.34
2023-03-30T16:59:52.968Z,25.33
2023-03-30T17:00:52.917Z,25.33
2023-03-30T17:01:52.804Z,25.34
2023-03-30T17:02:52.731Z,25.36
2023-03-30T17:03:52.764Z,25.34
2023-03-30T17:04:52.674Z,25.33
2023-03-30T17:05:52.685Z,25.34
2023-03-30T17:06:52.615Z,25.36
2023-03-30T17:07:52.603Z,25.34
2023-03-30T17:08:52.634Z,25.33
2023-03-30T17:09:52.566Z,25.34
2023-03-30T17:10:52.565Z,25.34
2023-03-30T17:11:52.579Z,25.37
2023-03-30T17:12:52.526Z,25.34
2023-03-30T17:13:52.498Z,25.36
2023-03-30T17:14:52.491Z,25.33
2023-03-30T17:15:52.487Z,25.36
2023-03-30T17:16:52.582Z,25.37
2023-03-30T17:17:52.516Z,25.36
2023-03-30T17:18:52.464Z,25.37
2023-03-30T17:19:52.440Z,25.37
2023-03-30T17:20:52.426Z,25.38
2023-03-30T17:21:52.401Z,25.36
2023-03-30T17:22:52.381Z,25.37
2023-03-30T17:23:52.373Z,25.37
2023-03-30T17:24:52.359Z,25.36
2023-03-30T17:25:52.331Z,25.38
2023-03-30T17:26:52.333Z,25.36
2023-03-30T17:27:52.308Z,25.37
2023-03-30T17:28:52.294Z,25.36
2023-03-30T17:29:52.288Z,25.36
2023-03-30T17:30:52.373Z,25.34
2023-03-30T17:31:52.269Z,25.37
2023-03-30T17:32:52.396Z,25.34
2023-03-30T17:33:52.268Z,25.34
2023-03-30T17:34:52.256Z,25.34
2023-03-30T17:35:52.302Z,25.34
2023-03-30T17:36:52.243Z,25.34
2023-03-30T17:37:52.267Z,25.34
2023-03-30T17:38:52.249Z,25.36
2023-03-30T17:39:52.245Z,25.36
2023-03-30T17:40:52.205Z,25.36
2023-03-30T17:41:52.186Z,25.37
2023-03-30T17:42:52.179Z,25.34
2023-03-30T17:43:52.151Z,25.34
2023-03-30T17:44:52.149Z,25.36
2023-03-30T17:45:52.137Z,25.34
2023-03-30T17:46:52.125Z,25.36
2023-03-30T17:47:52.099Z,25.34
2023-03-30T17:48:52.162Z,25.34
2023-03-30T17:49:52.084Z,25.36
2023-03-30T17:50:52.078Z,25.33
2023-03-30T17:51:52.079Z,25.33
2023-03-30T17:52:52.102Z,25.34
2023-03-30T17:53:52.087Z,25.31
2023-03-30T17:54:52.094Z,25.33
2023-03-30T17:55:52.069Z,25.36
2023-03-30T17:56:52.075Z,25.34
2023-03-30T17:57:52.023Z,25.34
2023-03-30T17:58:52.032Z,25.31
2023-03-30T17:59:52.007Z,25.31
2023-03-30T18:00:52.080Z,25.33
2023-03-30T18:01:52.051Z,25.33
2023-03-30T18:02:51.994Z,25.33
2023-03-30T18:03:52.148Z,25.34
2023-03-30T18:04:51.989Z,25.33
2023-03-30T18:05:51.954Z,25.31
2023-03-30T18:06:51.938Z,25.33
2023-03-30T18:07:51.937Z,25.31
2023-03-30T18:08:52.151Z,25.33
2023-03-30T18:09:51.904Z,25.31
2023-03-30T18:10:51.895Z,25.31
2023-03-30T18:11:51.892Z,25.30
2023-03-30T18:12:51.878Z,25.31
2023-03-30T18:13:53.572Z,25.29
2023-03-30T18:14:51.773Z,25.33
2023-03-30T18:15:51.774Z,25.30
2023-03-30T18:16:51.709Z,25.33
2023-03-30T18:17:51.620Z,25.31
2023-03-30T18:18:51.491Z,25.31
2023-03-30T18:19:51.441Z,25.33
2023-03-30T18:20:51.394Z,25.30
2023-03-30T18:21:51.309Z,25.30
2023-03-30T18:22:51.239Z,25.31
2023-03-30T18:23:51.151Z,25.31
2023-03-30T18:24:51.071Z,25.31
2023-03-30T18:25:50.996Z,25.31
2023-03-30T18:26:50.925Z,25.31
2023-03-30T18:27:50.860Z,25.31
2023-03-30T18:28:50.773Z,25.31
2023-03-30T18:29:50.713Z,25.33
2023-03-30T18:30:50.629Z,25.30
2023-03-30T18:31:50.642Z,25.31
2023-03-30T18:32:50.533Z,25.33
2023-03-30T18:33:53.083Z,25.30
2023-03-30T18:34:50.352Z,25.31
2023-03-30T18:35:50.324Z,25.30
2023-03-30T18:36:50.212Z,25.33
2023-03-30T18:37:50.104Z,25.33
2023-03-30T18:38:50.038Z,25.31
2023-03-30T18:39:49.967Z,25.31
2023-03-30T18:40:49.909Z,25.33
2023-03-30T18:41:49.838Z,25.31
2023-03-30T18:42:49.761Z,25.31
2023-03-30T18:43:49.689Z,25.29
2023-03-30T18:44:49.655Z,25.30
2023-03-30T18:45:49.767Z,25.34
2023-03-30T18:46:49.738Z,25.30
2023-03-30T18:47:49.498Z,25.31
2023-03-30T18:48:49.365Z,25.33
2023-03-30T18:49:49.287Z,25.33
2023-03-30T18:50:49.214Z,25.31
2023-03-30T18:51:49.134Z,25.31
2023-03-30T18:52:49.098Z,25.33
2023-03-30T18:53:48.994Z,25.31
2023-03-30T18:54:48.921Z,25.33
2023-03-30T18:55:48.861Z,25.30
2023-03-30T18:56:48.804Z,25.30
2023-03-30T18:57:48.697Z,25.30
2023-03-30T18:58:48.628Z,25.33
2023-03-30T18:59:48.575Z,25.30
2023-03-30T19:00:48.705Z,25.30
2023-03-30T19:01:48.578Z,25.31
2023-03-30T19:02:48.616Z,25.31
2023-03-30T19:03:48.579Z,25.33
2023-03-30T19:04:48.517Z,25.33
2023-03-30T19:05:48.509Z,25.31
2023-03-30T19:06:48.504Z,25.30
2023-03-30T19:07:48.509Z,25.30
2023-03-30T19:08:48.516Z,25.31
2023-03-30T19:09:48.467Z,25.33
2023-03-30T19:10:48.445Z,25.31
2023-03-30T19:11:48.433Z,25.31
2023-03-30T19:12:48.412Z,25.30
2023-03-30T19:13:48.431Z,25.33
2023-03-30T19:14:48.384Z,25.33
2023-03-30T19:15:48.381Z,25.31
2023-03-30T19:16:48.418Z,25.31
2023-03-30T19:17:48.402Z,25.33
2023-03-30T19:18:48.325Z,25.34
2023-03-30T19:19:48.293Z,25.33
2023-03-30T19:20:48.275Z,25.31
2023-03-30T19:21:48.258Z,25.31
2023-03-30T19:22:48.250Z,25.33
2023-03-30T19:23:48.249Z,25.33
2023-03-30T19:24:48.246Z,25.31
2023-03-30T19:25:48.211Z,25.31
2023-03-30T19:26:48.214Z,25.29
2023-03-30T19:27:59.586Z,25.30
2023-03-30T19:30:06.177Z,25.27
2023-03-30T19:31:07.381Z,25.29
2023-03-30T19:32:07.111Z,25.30
2023-03-30T19:33:07.086Z,25.30
2023-03-30T19:34:07.033Z,25.27
2023-03-30T19:35:06.995Z,25.27
2023-03-30T19:36:07.015Z,25.27
2023-03-30T19:37:06.923Z,25.27
2023-03-30T19:38:06.899Z,25.26
2023-03-30T19:39:06.855Z,25.27
2023-03-30T19:40:06.852Z,25.27
2023-03-30T19:41:07.056Z,25.29
2023-03-30T19:42:09.241Z,25.27
2023-03-30T19:43:06.734Z,25.29
2023-03-30T19:44:06.710Z,25.27
2023-03-30T19:45:06.665Z,25.29
2023-03-30T19:46:06.668Z,25.29
2023-03-30T19:47:06.609Z,25.27
2023-03-30T19:48:06.607Z,25.29
2023-03-30T19:49:06.542Z,25.27
2023-03-30T19:50:06.511Z,25.27
2023-03-30T19:51:06.714Z,25.29
2023-03-30T19:52:06.435Z,25.29
2023-03-30T19:53:06.413Z,25.26
2023-03-30T19:54:06.372Z,25.29
2023-03-30T19:55:06.346Z,25.29
2023-03-30T19:56:06.341Z,25.29
2023-03-30T19:57:06.360Z,25.30
2023-03-30T19:58:06.280Z,25.29
2023-03-30T19:59:06.238Z,25.29
2023-03-30T20:00:06.208Z,25.27
2023-03-30T20:01:06.547Z,25.27
2023-03-30T20:02:06.180Z,25.27
2023-03-30T20:03:06.322Z,25.29
2023-03-30T20:04:06.328Z,25.29
2023-03-30T20:05:06.056Z,25.29
2023-03-30T20:06:05.975Z,25.29
2023-03-30T20:07:05.947Z,25.29
2023-03-30T20:08:20.971Z,25.27
2023-03-30T20:09:05.885Z,25.29
2023-03-30T20:10:05.853Z,25.27
2023-03-30T20:11:06.064Z,25.26
2023-03-30T20:12:05.850Z,25.24
2023-03-30T20:13:05.773Z,25.24
2023-03-30T20:14:05.727Z,25.27
2023-03-30T20:15:05.705Z,25.26
2023-03-30T20:16:05.732Z,25.27
2023-03-30T20:17:05.621Z,25.27
2023-03-30T20:18:05.650Z,25.29
2023-03-30T20:19:12.868Z,25.27
2023-03-30T20:20:05.505Z,25.29
2023-03-30T20:21:05.759Z,25.26
2023-03-30T20:22:05.439Z,25.26
2023-03-30T20:23:05.393Z,25.26
2023-03-30T20:24:05.357Z,25.27
2023-03-30T20:25:05.338Z,25.27
2023-03-30T20:26:05.287Z,25.29
2023-03-30T20:27:05.286Z,25.27
2023-03-30T20:28:05.260Z,25.29
2023-03-30T20:29:05.199Z,25.29
2023-03-30T20:30:05.173Z,25.29
2023-03-30T20:31:05.305Z,25.29
2023-03-30T20:32:05.115Z,25.29
2023-03-30T20:33:08.425Z,25.27
2023-03-30T20:34:05.038Z,25.26
2023-03-30T20:35:04.999Z,25.24
2023-03-30T20:36:04.972Z,25.27
2023-03-30T20:37:04.919Z,25.26
2023-03-30T20:38:04.891Z,25.26
2023-03-30T20:39:04.850Z,25.26
2023-03-30T20:40:04.818Z,25.29
2023-03-30T20:41:05.011Z,25.27
2023-03-30T20:42:04.736Z,25.27
2023-03-30T20:43:04.691Z,25.26
2023-03-30T20:44:04.690Z,25.26
2023-03-30T20:45:04.631Z,25.24
2023-03-30T20:46:04.628Z,25.27
2023-03-30T20:47:04.567Z,25.24
2023-03-30T20:48:04.606Z,25.26
2023-03-30T20:49:04.624Z,25.24
2023-03-30T20:50:04.645Z,25.24
2023-03-30T20:51:05.033Z,25.27
2023-03-30T20:52:04.693Z,25.26
2023-03-30T20:53:04.712Z,25.26
2023-03-30T20:54:04.741Z,25.27
2023-03-30T20:55:04.760Z,25.29
2023-03-30T20:56:04.771Z,25.27
2023-03-30T20:57:04.813Z,25.27
2023-03-30T20:58:04.804Z,25.27
2023-03-30T20:59:04.823Z,25.27
2023-03-30T21:00:04.876Z,25.27
2023-03-30T21:01:05.202Z,25.29
2023-03-30T21:02:04.882Z,25.27
2023-03-30T21:03:04.913Z,25.29
2023-03-30T21:04:04.938Z,25.27
2023-03-30T21:05:05.064Z,25.27
2023-03-30T21:06:05.195Z,25.27
2023-03-30T21:07:04.971Z,25.29
2023-03-30T21:08:04.990Z,25.27
2023-03-30T21:09:05.012Z,25.29
2023-03-30T21:10:05.032Z,25.29
2023-03-30T21:11:05.258Z,25.29
2023-03-30T21:12:05.090Z,25.29
2023-03-30T21:13:05.105Z,25.30
2023-03-30T21:14:05.118Z,25.26
2023-03-30T21:15:05.132Z,25.27
2023-03-30T21:16:05.430Z,25.30
2023-03-30T21:17:05.265Z,25.31
2023-03-30T21:18:05.230Z,25.27
2023-03-30T21:19:05.225Z,25.27
2023-03-30T21:20:05.238Z,25.29
2023-03-30T21:21:05.244Z,25.27
2023-03-30T21:22:05.261Z,25.26
2023-03-30T21:23:05.283Z,25.29
2023-03-30T21:24:05.296Z,25.26
2023-03-30T21:25:05.322Z,25.27
2023-03-30T21:26:05.430Z,25.27
2023-03-30T21:27:05.345Z,25.27
2023-03-30T21:28:05.375Z,25.24
2023-03-30T21:29:05.391Z,25.29
2023-03-30T21:30:05.425Z,25.27
2023-03-30T21:31:05.588Z,25.26
2023-03-30T21:32:05.466Z,25.27
2023-03-30T21:33:05.558Z,25.27
2023-03-30T21:34:05.482Z,25.26
2023-03-30T21:35:05.498Z,25.29
2023-03-30T21:36:05.863Z,25.27
2023-03-30T21:37:05.607Z,25.30
2023-03-30T21:38:05.540Z,25.29
2023-03-30T21:39:05.552Z,25.27
2023-03-30T21:40:05.569Z,25.26
2023-03-30T21:41:06.415Z,25.26
2023-03-30T21:42:05.598Z,25.27
2023-03-30T21:43:05.609Z,25.29
2023-03-30T21:44:05.657Z,25.29
2023-03-30T21:45:05.641Z,25.27
2023-03-30T21:46:06.007Z,25.30
2023-03-30T21:47:05.679Z,25.27
2023-03-30T21:48:05.906Z,25.24
2023-03-30T21:49:05.712Z,25.27
2023-03-30T21:50:05.746Z,25.26
2023-03-30T21:51:06.409Z,25.29
2023-03-30T21:52:05.758Z,25.29
2023-03-30T21:53:05.780Z,25.29
2023-03-30T21:54:05.789Z,25.27
2023-03-30T21:55:05.808Z,25.27
2023-03-30T21:56:05.984Z,25.29
2023-03-30T21:57:05.881Z,25.29
2023-03-30T21:58:05.849Z,25.29
2023-03-30T21:59:05.868Z,25.26
2023-03-30T22:00:05.885Z,25.29
2023-03-30T22:01:11.675Z,25.29
2023-03-30T22:02:05.922Z,25.27
2023-03-30T22:03:05.884Z,25.27
2023-03-30T22:04:06.463Z,25.27
2023-03-30T22:05:05.704Z,25.30
2023-03-30T22:06:05.863Z,25.27
2023-03-30T22:07:05.622Z,25.29
2023-03-30T22:08:05.571Z,25.27
2023-03-30T22:09:05.542Z,25.29
2023-03-30T22:10:05.498Z,25.29
2023-03-30T22:11:05.450Z,25.27
2023-03-30T22:12:05.418Z,25.27
2023-03-30T22:13:05.371Z,25.26
2023-03-30T22:14:05.308Z,25.29
2023-03-30T22:15:05.273Z,25.27
2023-03-30T22:16:05.548Z,25.24
2023-03-30T22:17:05.315Z,25.26
2023-03-30T22:18:05.332Z,25.29
2023-03-30T22:19:05.349Z,25.31
2023-03-30T22:20:05.389Z,25.27
2023-03-30T22:21:05.650Z,25.29
2023-03-30T22:22:05.401Z,25.27
2023-03-30T22:23:05.425Z,25.27
2023-03-30T22:24:05.442Z,25.27
2023-03-30T22:25:05.454Z,25.29
2023-03-30T22:26:05.571Z,25.27
2023-03-30T22:27:05.492Z,25.29
2023-03-30T22:28:05.522Z,25.27
2023-03-30T22:29:05.516Z,25.26
2023-03-30T22:30:05.519Z,25.29
2023-03-30T22:31:05.639Z,25.27
2023-03-30T22:32:05.696Z,25.29
2023-03-30T22:33:05.589Z,25.27
2023-03-30T22:34:05.565Z,25.27
2023-03-30T22:35:05.593Z,25.30
2023-03-30T22:36:05.927Z,25.29
2023-03-30T22:37:05.613Z,25.30
2023-03-30T22:38:05.636Z,25.29
2023-03-30T22:39:05.654Z,25.29
2023-03-30T22:40:05.670Z,25.29
2023-03-30T22:41:07.619Z,25.29
2023-03-30T22:42:05.634Z,25.29
2023-03-30T22:43:05.589Z,25.27
2023-03-30T22:44:05.552Z,25.27
2023-03-30T22:45:05.510Z,25.30
2023-03-30T22:46:05.725Z,25.30
2023-03-30T22:47:05.449Z,25.29
2023-03-30T22:48:05.447Z,25.30
2023-03-30T22:49:05.365Z,25.27
2023-03-30T22:50:05.327Z,25.27
2023-03-30T22:51:05.262Z,25.27
2023-03-30T22:52:05.247Z,25.27
2023-03-30T22:53:05.178Z,25.27
2023-03-30T22:54:05.159Z,25.29
2023-03-30T22:55:05.127Z,25.30
2023-03-30T22:56:05.303Z,25.29
2023-03-30T22:57:05.067Z,25.29
2023-03-30T22:58:04.994Z,25.26
2023-03-30T22:59:04.980Z,25.29
2023-03-30T23:00:04.922Z,25.27
2023-03-30T23:01:04.885Z,25.27
2023-03-30T23:02:04.821Z,25.27
2023-03-30T23:03:04.920Z,25.29
2023-03-30T23:56:15.387Z,25.29
2023-03-30T23:57:16.419Z,25.29
2023-03-30T23:58:16.419Z,25.29
2023-03-30T23:59:16.411Z,25.30
